createdAt,value
2024-02-08T00:01:39.118Z,0.51
2024-02-08T00:04:05.857Z,0.50
2024-02-08T00:06:33.252Z,0.54
2024-02-08T00:09:03.191Z,0.51
2024-02-08T00:11:29.669Z,0.52
2024-02-08T00:13:56.218Z,0.53
2024-02-08T00:16:22.661Z,0.52
2024-02-08T00:18:49.054Z,0.52
2024-02-08T00:21:15.873Z,0.51
2024-02-08T00:23:42.310Z,0.49
2024-02-08T00:26:08.862Z,0.48
2024-02-08T00:28:35.237Z,0.49
2024-02-08T00:31:01.779Z,0.51
2024-02-08T00:33:28.112Z,0.52
2024-02-08T00:35:54.627Z,0.52
2024-02-08T00:38:21.085Z,0.55
2024-02-08T00:40:48.345Z,0.54
2024-02-08T00:43:14.646Z,0.56
2024-02-08T00:45:41.119Z,0.57
2024-02-08T00:48:07.500Z,0.56
2024-02-08T00:50:34.022Z,0.56
2024-02-08T00:53:01.704Z,0.55
2024-02-08T00:55:31.479Z,0.54
2024-02-08T00:57:57.858Z,0.56
2024-02-08T01:00:24.436Z,0.60
2024-02-08T01:02:50.938Z,0.57
2024-02-08T01:05:17.599Z,0.56
2024-02-08T01:07:44.262Z,0.53
2024-02-08T01:10:10.586Z,0.48
2024-02-08T01:12:37.104Z,0.54
2024-02-08T01:15:05.718Z,0.58
2024-02-08T01:17:33.281Z,0.61
2024-02-08T01:20:02.860Z,0.64
2024-02-08T01:22:29.774Z,0.65
2024-02-08T01:24:56.564Z,0.68
2024-02-08T01:27:23.085Z,0.72
2024-02-08T01:29:50.635Z,0.73
2024-02-08T01:32:17.727Z,0.73
2024-02-08T01:34:47.386Z,0.74
2024-02-08T01:37:14.393Z,0.73
2024-02-08T01:39:41.367Z,0.72
2024-02-08T01:42:14.672Z,0.72
2024-02-08T01:44:46.504Z,0.69
2024-02-08T01:47:13.625Z,0.75
2024-02-08T01:49:40.458Z,0.74
2024-02-08T01:52:07.215Z,0.75
2024-02-08T01:54:33.741Z,0.72
2024-02-08T01:57:00.634Z,0.71
2024-02-08T01:59:28.837Z,0.73
2024-02-08T02:01:57.352Z,0.74
2024-02-08T02:04:24.145Z,0.75
2024-02-08T02:06:50.706Z,0.75
2024-02-08T02:09:27.204Z,0.77
2024-02-08T02:11:56.497Z,0.76
2024-02-08T02:14:30.098Z,0.78
2024-02-08T02:17:08.754Z,0.77
2024-02-08T02:19:35.514Z,0.77
2024-02-08T02:22:02.134Z,0.78
2024-02-08T02:24:28.761Z,0.81
2024-02-08T02:26:58.600Z,0.79
2024-02-08T02:29:28.047Z,0.76
2024-02-08T02:31:54.373Z,0.71
2024-02-08T02:34:27.289Z,0.71
2024-02-08T02:36:59.621Z,0.70
2024-02-08T02:39:29.549Z,0.73
2024-02-08T02:41:56.283Z,0.76
2024-02-08T02:44:22.640Z,0.77
2024-02-08T02:46:50.966Z,0.77
2024-02-08T02:49:22.152Z,0.78
2024-02-08T02:51:49.933Z,0.76
2024-02-08T02:54:17.189Z,0.77
2024-02-08T02:56:48.879Z,0.77
2024-02-08T02:59:18.896Z,0.76
2024-02-08T03:01:50.742Z,0.77
2024-02-08T03:04:17.672Z,0.79
2024-02-08T03:06:46.366Z,0.83
2024-02-08T03:09:24.612Z,0.88
2024-02-08T03:11:51.485Z,0.90
2024-02-08T03:14:20.700Z,0.86
2024-02-08T03:16:47.392Z,0.89
2024-02-08T03:19:14.151Z,0.88
2024-02-08T03:21:41.641Z,0.91
2024-02-08T03:24:09.300Z,0.89
2024-02-08T03:26:46.454Z,0.89
2024-02-08T03:29:13.162Z,0.89
2024-02-08T03:31:46.818Z,0.91
2024-02-08T03:34:31.044Z,0.90
2024-02-08T03:36:58.356Z,0.89
2024-02-08T03:39:28.224Z,0.92
2024-02-08T03:42:08.421Z,0.92
2024-02-08T03:44:35.292Z,0.92
2024-02-08T03:47:04.871Z,0.91
2024-02-08T03:49:37.359Z,0.86
2024-02-08T03:52:04.455Z,0.90
2024-02-08T03:54:34.534Z,0.91
2024-02-08T03:57:00.855Z,0.90
2024-02-08T03:59:27.470Z,0.88
2024-02-08T04:02:04.651Z,0.83
2024-02-08T04:04:51.392Z,0.85
2024-02-08T04:07:38.232Z,0.80
2024-02-08T04:10:23.472Z,0.74
2024-02-08T04:13:08.335Z,0.68
2024-02-08T04:15:53.855Z,0.64
2024-02-08T04:18:39.722Z,0.63
2024-02-08T04:21:24.813Z,0.63
2024-02-08T04:24:09.728Z,0.63
2024-02-08T04:26:54.837Z,0.65
2024-02-08T04:29:39.538Z,0.69
2024-02-08T04:32:24.966Z,0.74
2024-02-08T04:35:10.285Z,0.77
2024-02-08T04:37:56.057Z,0.81
2024-02-08T04:40:40.909Z,0.83
2024-02-08T04:43:25.947Z,0.86
2024-02-08T04:46:10.936Z,0.84
2024-02-08T04:48:55.757Z,0.79
2024-02-08T04:51:40.526Z,0.79
2024-02-08T04:54:10.550Z,0.77
2024-02-08T04:56:37.125Z,0.73
2024-02-08T04:59:20.506Z,0.71
2024-02-08T05:01:51.096Z,0.64
2024-02-08T05:04:19.660Z,0.59
2024-02-08T05:06:46.971Z,0.56
2024-02-08T05:09:16.920Z,0.51
2024-02-08T05:11:44.652Z,0.47
2024-02-08T05:14:11.197Z,0.43
2024-02-08T05:16:38.775Z,0.43
2024-02-08T05:19:05.623Z,0.47
2024-02-08T05:21:32.976Z,0.46
2024-02-08T05:23:59.839Z,0.47
2024-02-08T05:26:26.990Z,0.41
2024-02-08T05:28:59.000Z,0.36
2024-02-08T05:31:28.269Z,0.31
2024-02-08T05:33:58.711Z,0.29
2024-02-08T05:36:25.660Z,0.25
2024-02-08T05:38:58.057Z,0.21
2024-02-08T05:41:24.861Z,0.18
2024-02-08T05:43:53.054Z,0.18
2024-02-08T05:46:26.965Z,0.21
2024-02-08T05:48:53.870Z,0.23
2024-02-08T05:51:21.989Z,0.25
2024-02-08T05:53:49.132Z,0.27
2024-02-08T05:56:22.775Z,0.29
2024-02-08T05:58:52.881Z,0.30
2024-02-08T06:01:24.114Z,0.37
2024-02-08T06:03:51.012Z,0.39
2024-02-08T06:06:19.298Z,0.48
2024-02-08T06:08:47.723Z,0.59
2024-02-08T06:11:21.404Z,0.69
2024-02-08T06:14:00.312Z,0.83
2024-02-08T06:16:50.407Z,0.91
2024-02-08T06:19:18.821Z,0.99
2024-02-08T06:21:47.405Z,1.06
2024-02-08T06:24:23.590Z,1.12
2024-02-08T06:26:57.349Z,1.17
2024-02-08T06:29:28.593Z,1.23
2024-02-08T06:32:03.903Z,1.27
2024-02-08T06:34:43.893Z,1.27
2024-02-08T06:37:31.001Z,1.30
2024-02-08T06:39:58.876Z,1.32
2024-02-08T06:42:38.852Z,1.27
2024-02-08T06:45:24.039Z,1.24
2024-02-08T06:47:58.299Z,1.19
2024-02-08T06:50:43.651Z,1.18
2024-02-08T06:53:28.317Z,1.15
2024-02-08T06:56:13.338Z,1.11
2024-02-08T06:59:00.856Z,1.07
2024-02-08T07:01:46.582Z,1.07
2024-02-08T07:04:31.750Z,1.05
2024-02-08T07:07:16.907Z,1.01
2024-02-08T07:10:02.036Z,0.99
2024-02-08T07:12:47.294Z,0.97
2024-02-08T07:15:32.182Z,0.96
2024-02-08T07:18:17.402Z,0.94
2024-02-08T07:21:02.181Z,0.98
2024-02-08T07:23:47.176Z,1.04
2024-02-08T07:26:35.415Z,1.06
2024-02-08T07:29:20.934Z,1.10
2024-02-08T07:32:05.842Z,1.11
2024-02-08T07:34:51.941Z,1.14
2024-02-08T07:37:26.905Z,1.19
2024-02-08T07:40:02.404Z,1.25
2024-02-08T07:42:43.466Z,1.29
2024-02-08T07:45:13.987Z,1.32
2024-02-08T07:47:40.942Z,1.31
2024-02-08T07:50:11.365Z,1.32
2024-02-08T07:52:48.006Z,1.32
2024-02-08T07:55:44.000Z,1.33
2024-02-08T07:58:10.363Z,1.39
2024-02-08T08:00:39.900Z,1.45
2024-02-08T08:03:17.491Z,1.48
2024-02-08T08:05:45.842Z,1.55
2024-02-08T08:08:25.593Z,1.61
2024-02-08T08:11:05.143Z,1.68
2024-02-08T08:13:53.530Z,1.77
2024-02-08T08:16:32.843Z,1.84
2024-02-08T08:19:00.648Z,1.87
2024-02-08T08:21:27.994Z,1.93
2024-02-08T08:24:03.956Z,1.98
2024-02-08T08:26:40.390Z,2.07
2024-02-08T08:29:14.837Z,2.15
2024-02-08T08:31:53.615Z,2.25
2024-02-08T08:34:23.903Z,2.33
2024-02-08T08:37:03.533Z,2.40
2024-02-08T08:40:09.527Z,2.49
2024-02-08T08:42:35.998Z,2.58
2024-02-08T08:45:06.433Z,2.61
2024-02-08T08:47:32.820Z,2.63
2024-02-08T08:49:59.626Z,2.66
2024-02-08T08:52:26.440Z,2.68
2024-02-08T08:55:14.201Z,2.69
2024-02-08T08:57:40.780Z,2.72
2024-02-08T09:00:10.500Z,2.76
2024-02-08T09:02:41.920Z,2.77
2024-02-08T09:05:18.586Z,2.84
2024-02-08T09:07:48.420Z,2.88
2024-02-08T09:10:17.656Z,2.94
2024-02-08T09:13:01.529Z,2.98
2024-02-08T09:15:29.325Z,3.06
2024-02-08T09:18:10.323Z,3.17
2024-02-08T09:20:38.767Z,3.26
2024-02-08T09:23:14.351Z,3.33
2024-02-08T09:25:47.677Z,3.42
2024-02-08T09:28:37.477Z,3.42
2024-02-08T09:31:14.151Z,3.37
2024-02-08T09:33:49.617Z,3.42
2024-02-08T09:36:16.267Z,3.48
2024-02-08T09:38:47.477Z,3.48
2024-02-08T09:41:21.261Z,3.51
2024-02-08T09:43:49.048Z,3.61
2024-02-08T09:46:35.140Z,3.64
2024-02-08T09:49:23.177Z,3.66
2024-02-08T09:51:57.047Z,3.78
2024-02-08T09:54:32.070Z,3.95
2024-02-08T09:57:24.224Z,4.10
2024-02-08T10:00:08.836Z,4.27
2024-02-08T10:02:38.173Z,4.53
2024-02-08T10:05:23.194Z,4.65
2024-02-08T10:08:07.433Z,4.71
2024-02-08T10:10:39.759Z,4.80
2024-02-08T10:13:07.376Z,4.92
2024-02-08T10:15:45.719Z,5.00
2024-02-08T10:18:15.362Z,5.12
2024-02-08T10:20:47.496Z,5.22
2024-02-08T10:23:34.990Z,5.29
2024-02-08T10:26:20.375Z,5.32
2024-02-08T10:28:48.347Z,5.27
2024-02-08T10:31:20.089Z,5.26
2024-02-08T10:33:50.276Z,5.31
2024-02-08T10:36:19.160Z,5.35
2024-02-08T10:39:03.978Z,5.35
2024-02-08T10:41:40.264Z,5.21
2024-02-08T10:44:07.990Z,5.30
2024-02-08T10:46:35.124Z,5.37
2024-02-08T10:49:02.445Z,5.48
2024-02-08T10:51:29.528Z,5.73
2024-02-08T10:54:15.586Z,5.95
2024-02-08T10:56:46.578Z,6.12
2024-02-08T10:59:25.053Z,6.21
2024-02-08T11:01:52.378Z,6.19
2024-02-08T11:04:19.964Z,6.08
2024-02-08T11:06:56.589Z,6.00
2024-02-08T11:09:23.312Z,6.17
2024-02-08T11:12:00.849Z,6.22
2024-02-08T11:14:29.370Z,6.27
2024-02-08T11:16:56.452Z,6.29
2024-02-08T11:19:23.837Z,6.26
2024-02-08T11:21:53.611Z,6.25
2024-02-08T11:24:30.077Z,6.09
2024-02-08T11:26:59.659Z,5.95
2024-02-08T11:29:28.028Z,5.77
2024-02-08T11:31:57.162Z,5.68
2024-02-08T11:34:35.216Z,5.74
2024-02-08T11:37:17.822Z,5.99
2024-02-08T11:39:48.334Z,6.09
2024-02-08T11:42:18.436Z,6.11
2024-02-08T11:44:45.871Z,6.20
2024-02-08T11:47:19.692Z,6.33
2024-02-08T11:50:05.017Z,6.20
2024-02-08T11:52:32.675Z,6.24
2024-02-08T11:55:10.877Z,6.46
2024-02-08T11:57:38.559Z,6.63
2024-02-08T12:00:16.409Z,6.93
2024-02-08T12:02:49.023Z,7.17
2024-02-08T12:05:17.126Z,7.36
2024-02-08T12:07:47.229Z,7.39
2024-02-08T12:10:16.186Z,7.28
2024-02-08T12:12:46.047Z,7.23
2024-02-08T12:15:16.112Z,7.10
2024-02-08T12:17:49.663Z,6.82
2024-02-08T12:20:16.834Z,6.68
2024-02-08T12:22:43.333Z,6.52
2024-02-08T12:25:16.762Z,6.40
2024-02-08T12:27:49.246Z,6.41
2024-02-08T12:30:22.322Z,6.38
2024-02-08T12:32:52.112Z,6.23
2024-02-08T12:35:22.340Z,6.20
2024-02-08T12:37:49.953Z,6.17
2024-02-08T12:40:18.015Z,6.14
2024-02-08T12:42:44.532Z,6.18
2024-02-08T12:45:13.584Z,6.27
2024-02-08T12:47:40.504Z,6.41
2024-02-08T12:50:18.051Z,6.39
2024-02-08T12:52:56.017Z,6.35
2024-02-08T12:55:30.717Z,6.38
2024-02-08T12:58:03.577Z,6.31
2024-02-08T13:00:38.682Z,6.17
2024-02-08T13:03:10.246Z,6.13
2024-02-08T13:05:37.722Z,6.00
2024-02-08T13:08:04.748Z,5.81
2024-02-08T13:10:35.257Z,5.72
2024-02-08T13:13:05.565Z,5.60
2024-02-08T13:15:33.124Z,5.54
2024-02-08T13:17:59.745Z,5.52
2024-02-08T13:20:26.297Z,5.62
2024-02-08T13:22:53.973Z,5.77
2024-02-08T13:25:20.465Z,5.82
2024-02-08T13:27:46.772Z,5.78
2024-02-08T13:30:17.402Z,5.83
2024-02-08T13:32:50.981Z,5.87
2024-02-08T13:35:20.810Z,5.87
2024-02-08T13:37:51.647Z,5.84
2024-02-08T13:40:23.178Z,5.92
2024-02-08T13:42:55.239Z,5.96
2024-02-08T13:45:26.477Z,5.91
2024-02-08T13:47:57.558Z,5.87
2024-02-08T13:50:31.654Z,5.80
2024-02-08T13:52:59.879Z,5.74
2024-02-08T13:58:01.987Z,5.75
2024-02-08T14:00:28.634Z,5.71
2024-02-08T14:02:55.745Z,5.71
2024-02-08T14:05:27.113Z,5.71
2024-02-08T14:07:55.911Z,5.72
2024-02-08T14:10:29.550Z,5.71
2024-02-08T14:13:19.017Z,5.68
2024-02-08T14:15:47.506Z,5.61
2024-02-08T14:18:27.416Z,5.56
2024-02-08T14:21:01.696Z,5.50
2024-02-08T14:23:32.125Z,5.44
2024-02-08T14:26:08.349Z,5.38
2024-02-08T14:28:47.041Z,5.40
2024-02-08T14:31:13.982Z,5.32
2024-02-08T14:33:46.935Z,5.26
2024-02-08T14:36:14.821Z,5.28
2024-02-08T14:38:42.205Z,5.26
2024-02-08T14:41:09.469Z,5.21
2024-02-08T14:43:36.254Z,5.14
2024-02-08T14:46:03.265Z,5.10
2024-02-08T14:48:30.101Z,5.04
2024-02-08T14:51:17.817Z,5.01
2024-02-08T14:53:45.871Z,4.98
2024-02-08T14:56:19.963Z,4.96
2024-02-08T14:59:10.813Z,4.90
2024-02-08T15:01:41.329Z,4.85
2024-02-08T15:04:18.043Z,4.84
2024-02-08T15:07:05.314Z,4.82
2024-02-08T15:09:49.412Z,4.78
2024-02-08T15:12:18.888Z,4.71
2024-02-08T15:14:46.625Z,4.69
2024-02-08T15:17:13.039Z,4.65
2024-02-08T15:19:48.979Z,4.60
2024-02-08T15:22:31.180Z,4.55
2024-02-08T15:25:07.461Z,4.53
2024-02-08T15:27:53.082Z,4.50
2024-02-08T15:30:37.422Z,4.49
2024-02-08T15:33:18.519Z,4.42
2024-02-08T15:35:53.169Z,4.38
2024-02-08T15:38:34.579Z,4.31
2024-02-08T15:41:21.623Z,4.26
2024-02-08T15:43:49.926Z,4.24
2024-02-08T15:46:16.909Z,4.21
2024-02-08T15:48:46.442Z,4.19
2024-02-08T15:51:14.141Z,4.16
2024-02-08T15:53:49.895Z,4.14
2024-02-08T15:56:20.790Z,4.12
2024-02-08T15:58:48.195Z,4.09
2024-02-08T16:01:15.083Z,4.03
2024-02-08T16:03:54.715Z,3.99
2024-02-08T16:06:40.684Z,3.94
2024-02-08T16:09:09.238Z,3.87
2024-02-08T16:11:35.659Z,3.87
2024-02-08T16:14:05.984Z,3.82
2024-02-08T16:16:32.780Z,3.81
2024-02-08T16:19:18.487Z,3.80
2024-02-08T16:21:44.893Z,3.75
2024-02-08T16:24:14.977Z,3.75
2024-02-08T16:26:45.551Z,3.75
2024-02-08T16:29:17.947Z,3.75
2024-02-08T16:31:46.078Z,3.74
2024-02-08T16:34:25.900Z,3.76
2024-02-08T16:37:04.414Z,3.75
2024-02-08T16:39:55.695Z,3.73
2024-02-08T16:42:25.056Z,3.72
2024-02-08T16:44:52.269Z,3.71
2024-02-08T16:47:42.808Z,3.69
2024-02-08T16:50:18.918Z,3.67
2024-02-08T16:52:50.629Z,3.64
2024-02-08T16:55:23.871Z,3.62
2024-02-08T16:58:02.030Z,3.61
2024-02-08T17:00:40.084Z,3.59
2024-02-08T17:03:09.332Z,3.57
2024-02-08T17:05:54.619Z,3.57
2024-02-08T17:08:31.059Z,3.54
2024-02-08T17:11:02.630Z,3.54
2024-02-08T17:13:31.398Z,3.54
2024-02-08T17:16:05.279Z,3.54
2024-02-08T17:18:45.522Z,3.54
2024-02-08T17:21:37.014Z,3.52
2024-02-08T17:24:09.035Z,3.51
2024-02-08T17:26:36.390Z,3.49
2024-02-08T17:29:11.494Z,3.47
2024-02-08T17:31:44.266Z,3.47
2024-02-08T17:34:11.860Z,3.45
2024-02-08T17:36:45.449Z,3.46
2024-02-08T17:39:12.810Z,3.45
2024-02-08T17:41:39.509Z,3.43
2024-02-08T17:44:06.220Z,3.40
2024-02-08T17:46:39.087Z,3.40
2024-02-08T17:49:06.470Z,3.39
2024-02-08T17:51:33.287Z,3.38
2024-02-08T17:54:08.507Z,3.36
2024-02-08T17:56:35.849Z,3.36
2024-02-08T17:59:09.774Z,3.35
2024-02-08T18:01:55.047Z,3.35
2024-02-08T18:04:26.781Z,3.33
2024-02-08T18:06:59.970Z,3.33
2024-02-08T18:09:34.428Z,3.34
2024-02-08T18:12:13.010Z,3.36
2024-02-08T18:14:41.507Z,3.39
2024-02-08T18:17:16.209Z,3.43
2024-02-08T18:19:46.716Z,3.43
2024-02-08T18:22:14.778Z,3.39
2024-02-08T18:24:42.174Z,3.38
2024-02-08T18:27:08.623Z,3.34
2024-02-08T18:29:37.060Z,3.31
2024-02-08T18:32:03.671Z,3.28
2024-02-08T18:34:33.155Z,3.26
2024-02-08T18:37:01.797Z,3.23
2024-02-08T18:39:28.299Z,3.21
2024-02-08T18:41:59.779Z,3.20
2024-02-08T18:44:26.245Z,3.18
2024-02-08T18:46:54.021Z,3.18
2024-02-08T18:49:22.660Z,3.18
2024-02-08T18:51:49.353Z,3.16
2024-02-08T18:54:21.558Z,3.16
2024-02-08T18:56:48.633Z,3.08
2024-02-08T18:59:15.208Z,2.99
2024-02-08T19:01:51.225Z,2.87
2024-02-08T19:04:25.625Z,2.81
2024-02-08T19:06:52.364Z,2.73
2024-02-08T19:09:27.547Z,2.71
2024-02-08T19:11:54.783Z,2.66
2024-02-08T19:14:23.203Z,2.66
2024-02-08T19:16:50.433Z,2.64
2024-02-08T19:19:18.447Z,2.64
2024-02-08T19:21:46.781Z,2.67
2024-02-08T19:24:23.494Z,2.68
2024-02-08T19:26:50.328Z,2.74
2024-02-08T19:29:18.573Z,2.74
2024-02-08T19:31:47.926Z,2.75
2024-02-08T19:34:22.705Z,2.74
2024-02-08T19:36:59.482Z,2.70
2024-02-08T19:39:29.260Z,2.67
2024-02-08T19:41:56.807Z,2.68
2024-02-08T19:44:27.148Z,2.68
2024-02-08T19:47:01.151Z,2.70
2024-02-08T19:49:35.146Z,2.70
2024-02-08T19:52:01.970Z,2.69
2024-02-08T19:54:30.758Z,2.69
2024-02-08T19:57:04.256Z,2.68
2024-02-08T19:59:32.690Z,2.65
2024-02-08T20:01:59.297Z,2.64
2024-02-08T20:04:25.953Z,2.57
2024-02-08T20:06:56.382Z,2.52
2024-02-08T20:09:23.259Z,2.54
2024-02-08T20:11:53.624Z,2.54
2024-02-08T20:14:23.614Z,2.56
2024-02-08T20:16:51.585Z,2.55
2024-02-08T20:19:19.451Z,2.56
2024-02-08T20:21:46.268Z,2.54
2024-02-08T20:24:15.509Z,2.49
2024-02-08T20:26:49.090Z,2.47
2024-02-08T20:29:16.224Z,2.45
2024-02-08T20:31:45.924Z,2.43
2024-02-08T20:34:13.695Z,2.45
2024-02-08T20:36:40.327Z,2.44
2024-02-08T20:39:19.544Z,2.43
2024-02-08T20:41:50.877Z,2.39
2024-02-08T20:44:18.783Z,2.41
2024-02-08T20:46:45.505Z,2.39
2024-02-08T20:49:14.812Z,2.37
2024-02-08T20:51:41.885Z,2.36
2024-02-08T20:54:08.239Z,2.37
2024-02-08T20:56:44.720Z,2.38
2024-02-08T20:59:11.872Z,2.32
2024-02-08T21:01:38.685Z,2.30
2024-02-08T21:04:08.324Z,2.29
2024-02-08T21:06:35.794Z,2.32
2024-02-08T21:09:08.677Z,2.32
2024-02-08T21:11:35.036Z,2.32
2024-02-08T21:14:01.633Z,2.30
2024-02-08T21:16:31.001Z,2.30
2024-02-08T21:18:58.120Z,2.29
2024-02-08T21:21:24.535Z,2.29
2024-02-08T21:23:52.157Z,2.27
2024-02-08T21:26:23.082Z,2.25
2024-02-08T21:28:51.982Z,2.24
2024-02-08T21:31:19.478Z,2.25
2024-02-08T21:33:51.588Z,2.24
2024-02-08T21:36:19.170Z,2.24
2024-02-08T21:38:50.067Z,2.24
2024-02-08T21:41:17.062Z,2.25
2024-02-08T21:43:43.989Z,2.29
2024-02-08T21:46:14.548Z,2.31
2024-02-08T21:48:45.379Z,2.30
2024-02-08T21:51:13.325Z,2.28
2024-02-08T21:53:40.041Z,2.25
2024-02-08T21:56:17.566Z,2.25
2024-02-08T21:58:45.240Z,2.22
2024-02-08T22:03:57.960Z,2.18
2024-02-08T22:06:25.311Z,2.17
2024-02-08T22:08:52.035Z,2.12
2024-02-08T22:11:18.438Z,2.06
2024-02-08T22:13:47.212Z,2.05
2024-02-08T22:16:16.597Z,2.06
2024-02-08T22:18:47.562Z,2.06
2024-02-08T22:21:18.116Z,2.05
2024-02-08T22:23:45.051Z,2.03
2024-02-08T22:26:14.093Z,2.00
2024-02-08T22:28:43.853Z,1.98
2024-02-08T22:31:12.624Z,2.00
2024-02-08T22:33:39.345Z,2.00
2024-02-08T22:36:07.943Z,1.96
2024-02-08T22:38:34.775Z,1.96
2024-02-08T22:41:01.498Z,1.95
2024-02-08T22:43:28.183Z,1.92
2024-02-08T22:45:54.585Z,1.92
2024-02-08T22:48:21.300Z,1.95
2024-02-08T22:50:48.974Z,1.94
2024-02-08T22:53:16.060Z,1.93
2024-02-08T22:55:43.440Z,1.91
2024-02-08T22:58:13.665Z,1.91
2024-02-08T23:00:49.556Z,1.89
2024-02-08T23:03:16.917Z,1.84
2024-02-08T23:05:51.913Z,1.84
2024-02-08T23:08:18.296Z,1.84
2024-02-08T23:10:44.896Z,1.86
2024-02-08T23:13:12.085Z,1.84
2024-02-08T23:15:42.742Z,1.83
2024-02-08T23:18:15.715Z,1.86
2024-02-08T23:20:44.061Z,1.87
2024-02-08T23:23:12.220Z,1.87
2024-02-08T23:25:39.103Z,1.87
2024-02-08T23:28:05.985Z,1.87
2024-02-08T23:30:33.901Z,1.86
2024-02-08T23:33:04.387Z,1.88
2024-02-08T23:35:31.135Z,1.86
2024-02-08T23:38:01.065Z,1.84
2024-02-08T23:40:28.733Z,1.84
2024-02-08T23:42:59.262Z,1.84
2024-02-08T23:45:26.191Z,1.87
2024-02-08T23:47:56.110Z,1.89
2024-02-08T23:50:23.181Z,1.90
2024-02-08T23:52:49.952Z,1.90
2024-02-08T23:55:19.957Z,1.88
2024-02-08T23:57:47.436Z,1.88
